createdAt,value
2018-12-12T00:00:22.121Z,81.10
2018-12-12T00:02:53.788Z,80.70
2018-12-12T00:05:30.368Z,79.50
2018-12-12T00:08:00.069Z,79.00
2018-12-12T00:10:34.738Z,79.70
2018-12-12T00:13:04.388Z,80.40
2018-12-12T00:15:34.711Z,80.90
2018-12-12T00:18:09.516Z,81.30
2018-12-12T00:20:44.095Z,81.80
2018-12-12T00:23:13.865Z,81.90
2018-12-12T00:25:43.598Z,81.10
2018-12-12T00:28:13.242Z,82.20
2018-12-12T00:30:42.914Z,80.80
2018-12-12T00:33:12.506Z,80.70
2018-12-12T00:35:47.118Z,80.80
2018-12-12T00:38:21.697Z,80.80
2018-12-12T00:40:51.409Z,81.10
2018-12-12T00:43:21.400Z,81.20
2018-12-12T00:45:55.982Z,81.50
2018-12-12T00:48:31.637Z,81.10
2018-12-12T00:51:01.559Z,81.20
2018-12-12T00:53:36.186Z,81.10
2018-12-12T00:56:05.748Z,81.20
2018-12-12T00:58:35.498Z,80.90
2018-12-12T01:01:10.071Z,81.60
2018-12-12T01:03:39.862Z,81.10
2018-12-12T01:06:14.435Z,81.40
2018-12-12T01:08:44.017Z,81.10
2018-12-12T01:11:19.062Z,80.90
2018-12-12T01:13:48.801Z,81.00
2018-12-12T01:16:18.755Z,81.80
2018-12-12T01:18:53.408Z,81.50
2018-12-12T01:21:23.312Z,81.80
2018-12-12T01:23:53.033Z,81.60
2018-12-12T01:26:27.782Z,82.00
2018-12-12T01:28:57.517Z,82.20
2018-12-12T01:31:27.289Z,82.20
2018-12-12T01:33:56.942Z,82.50
2018-12-12T01:36:31.570Z,82.30
2018-12-12T01:39:01.348Z,82.70
2018-12-12T01:41:37.931Z,82.80
2018-12-12T01:44:07.677Z,82.70
2018-12-12T01:46:37.330Z,83.00
2018-12-12T01:49:07.003Z,82.40
2018-12-12T01:51:41.520Z,83.00
2018-12-12T01:54:11.046Z,83.20
2018-12-12T01:56:40.622Z,81.10
2018-12-12T01:59:10.122Z,80.10
2018-12-12T02:01:39.521Z,79.60
2018-12-12T02:04:09.366Z,79.80
2018-12-12T02:06:38.883Z,79.00
2018-12-12T02:09:08.481Z,79.00
2018-12-12T02:11:39.926Z,79.30
2018-12-12T02:14:09.430Z,80.70
2018-12-12T02:16:38.925Z,81.00
2018-12-12T02:19:08.742Z,81.70
2018-12-12T02:21:38.259Z,82.50
2018-12-12T02:24:07.770Z,83.20
2018-12-12T02:26:37.283Z,83.50
2018-12-12T02:29:06.781Z,83.20
2018-12-12T02:31:36.286Z,83.30
2018-12-12T02:34:05.786Z,83.20
2018-12-12T02:36:35.291Z,82.60
2018-12-12T02:39:09.754Z,81.90
2018-12-12T02:41:45.215Z,81.30
2018-12-12T02:44:19.691Z,81.60
2018-12-12T02:46:54.162Z,80.80
2018-12-12T02:49:23.774Z,80.90
2018-12-12T02:51:53.383Z,81.40
2018-12-12T02:54:23.891Z,80.90
2018-12-12T02:56:53.388Z,80.90
2018-12-12T02:59:22.959Z,80.90
2018-12-12T03:01:52.480Z,81.00
2018-12-12T03:04:21.983Z,82.50
2018-12-12T03:06:51.538Z,83.10
2018-12-12T03:09:25.959Z,83.50
2018-12-12T03:11:55.459Z,83.20
2018-12-12T03:14:25.070Z,82.80
2018-12-12T03:16:59.466Z,82.80
2018-12-12T03:19:29.024Z,82.60
2018-12-12T03:21:59.174Z,82.80
2018-12-12T03:24:33.639Z,83.00
2018-12-12T03:27:03.330Z,83.30
2018-12-12T03:29:37.794Z,83.30
2018-12-12T03:32:07.385Z,83.50
2018-12-12T03:34:37.313Z,83.50
2018-12-12T03:37:07.305Z,83.50
2018-12-12T03:39:36.831Z,83.60
2018-12-12T03:42:11.415Z,84.10
2018-12-12T03:44:41.020Z,84.00
2018-12-12T03:47:10.548Z,84.20
2018-12-12T03:49:40.117Z,84.20
2018-12-12T03:52:09.607Z,83.40
2018-12-12T03:54:39.386Z,82.70
2018-12-12T03:57:08.966Z,83.10
2018-12-12T03:59:38.484Z,82.60
2018-12-12T04:02:07.951Z,82.10
2018-12-12T04:04:37.543Z,82.10
2018-12-12T04:07:07.056Z,81.90
2018-12-12T04:09:36.554Z,81.60
2018-12-12T04:12:06.055Z,82.10
2018-12-12T04:14:35.642Z,83.00
2018-12-12T04:17:05.113Z,83.10
2018-12-12T04:19:34.614Z,83.20
2018-12-12T04:22:06.149Z,82.90
2018-12-12T04:24:40.897Z,83.00
2018-12-12T04:27:10.770Z,83.10
2018-12-12T04:29:40.172Z,82.90
2018-12-12T04:32:09.747Z,83.30
2018-12-12T04:34:39.249Z,83.00
2018-12-12T04:37:08.827Z,82.40
2018-12-12T04:39:38.767Z,82.70
2018-12-12T04:42:08.258Z,83.20
2018-12-12T04:44:37.775Z,82.40
2018-12-12T04:47:07.266Z,81.20
2018-12-12T04:49:36.762Z,81.20
2018-12-12T04:52:06.318Z,81.50
2018-12-12T04:54:35.826Z,81.80
2018-12-12T04:57:05.971Z,81.70
2018-12-12T04:59:35.606Z,81.90
2018-12-12T05:02:05.107Z,82.10
2018-12-12T05:04:34.817Z,82.10
2018-12-12T05:07:09.743Z,81.20
2018-12-12T05:09:39.240Z,81.30
2018-12-12T05:12:08.755Z,81.70
2018-12-12T05:14:38.314Z,81.40
2018-12-12T05:17:07.878Z,81.80
2018-12-12T05:19:37.522Z,81.60
2018-12-12T05:22:07.038Z,82.00
2018-12-12T05:24:36.439Z,82.40
2018-12-12T05:27:05.945Z,83.00
2018-12-12T05:29:35.449Z,83.60
2018-12-12T05:32:05.022Z,83.50
2018-12-12T05:34:34.551Z,84.30
2018-12-12T05:37:04.073Z,82.90
2018-12-12T05:39:33.563Z,83.40
2018-12-12T05:42:03.086Z,84.20
2018-12-12T05:44:32.614Z,84.70
2018-12-12T05:47:02.136Z,85.00
2018-12-12T05:49:31.625Z,85.60
2018-12-12T05:52:01.195Z,85.30
2018-12-12T05:54:30.714Z,84.60
2018-12-12T05:57:00.285Z,85.00
2018-12-12T05:59:29.790Z,84.20
2018-12-12T06:01:59.285Z,84.20
2018-12-12T06:04:33.799Z,83.70
2018-12-12T06:07:03.427Z,84.00
2018-12-12T06:09:33.035Z,84.20
2018-12-12T06:12:03.254Z,84.10
2018-12-12T06:14:32.746Z,83.20
2018-12-12T06:17:07.286Z,83.60
2018-12-12T06:19:36.784Z,83.60
2018-12-12T06:22:06.678Z,83.90
2018-12-12T06:24:36.481Z,84.00
2018-12-12T06:27:10.899Z,83.80
2018-12-12T06:29:40.451Z,84.00
2018-12-12T06:32:11.009Z,83.70
2018-12-12T06:34:41.205Z,83.20
2018-12-12T06:37:11.089Z,82.80
2018-12-12T06:39:40.642Z,81.70
2018-12-12T06:42:10.149Z,82.00
2018-12-12T06:44:39.658Z,81.70
2018-12-12T06:47:09.190Z,81.40
2018-12-12T06:49:38.724Z,80.70
2018-12-12T06:52:13.106Z,81.00
2018-12-12T06:54:42.622Z,82.20
2018-12-12T06:57:12.129Z,82.80
2018-12-12T06:59:41.750Z,82.50
2018-12-12T07:02:11.245Z,83.20
2018-12-12T07:04:40.758Z,84.00
2018-12-12T07:07:10.351Z,84.50
2018-12-12T07:09:39.962Z,85.30
2018-12-12T07:12:09.693Z,84.40
2018-12-12T07:14:44.262Z,84.30
2018-12-12T07:17:18.812Z,84.50
2018-12-12T07:19:48.264Z,82.60
2018-12-12T07:22:17.825Z,81.60
2018-12-12T07:24:47.379Z,81.60
2018-12-12T07:27:17.414Z,81.00
2018-12-12T07:29:46.998Z,80.90
2018-12-12T07:32:16.662Z,81.70
2018-12-12T07:34:51.094Z,81.50
2018-12-12T07:37:20.673Z,82.40
2018-12-12T07:39:50.162Z,83.20
2018-12-12T07:42:24.661Z,83.00
2018-12-12T07:45:14.774Z,83.70
2018-12-12T07:47:51.166Z,82.30
2018-12-12T07:50:47.801Z,81.50
2018-12-12T07:53:35.050Z,81.80
2018-12-12T07:56:04.766Z,81.60
2018-12-12T07:58:34.351Z,82.60
2018-12-12T08:01:04.150Z,81.30
2018-12-12T08:03:33.576Z,81.40
2018-12-12T08:06:03.139Z,80.50
2018-12-12T08:08:32.773Z,79.30
2018-12-12T08:11:02.249Z,78.40
2018-12-12T08:13:31.821Z,76.80
2018-12-12T08:16:01.823Z,76.70
2018-12-12T08:18:31.837Z,75.90
2018-12-12T08:21:01.382Z,75.80
2018-12-12T08:23:31.228Z,76.20
2018-12-12T08:26:00.830Z,75.90
2018-12-12T08:28:30.378Z,74.30
2018-12-12T08:31:00.470Z,74.50
2018-12-12T08:33:29.981Z,75.00
2018-12-12T08:35:59.579Z,75.00
2018-12-12T08:38:29.064Z,75.20
2018-12-12T08:40:58.817Z,75.40
2018-12-12T08:43:28.317Z,76.60
2018-12-12T08:45:57.846Z,76.00
2018-12-12T08:48:27.398Z,75.90
2018-12-12T08:50:56.900Z,75.90
2018-12-12T08:53:26.418Z,75.20
2018-12-12T08:55:56.046Z,75.00
2018-12-12T08:58:25.570Z,75.90
2018-12-12T09:00:55.208Z,75.70
2018-12-12T09:03:24.782Z,75.20
2018-12-12T09:05:54.292Z,75.10
2018-12-12T09:08:23.816Z,75.30
2018-12-12T09:10:53.429Z,74.10
2018-12-12T09:13:22.993Z,73.60
2018-12-12T09:15:52.565Z,74.20
2018-12-12T09:18:22.383Z,74.50
2018-12-12T09:20:51.934Z,74.80
2018-12-12T09:23:26.343Z,73.90
2018-12-12T09:25:55.870Z,74.60
2018-12-12T09:28:25.376Z,74.10
2018-12-12T09:30:56.750Z,73.20
2018-12-12T09:33:28.193Z,73.20
2018-12-12T09:36:04.725Z,74.60
2018-12-12T09:38:34.226Z,74.00
2018-12-12T09:41:03.681Z,74.30
2018-12-12T09:43:33.451Z,74.10
2018-12-12T09:46:03.126Z,74.00
2018-12-12T09:48:33.054Z,74.10
2018-12-12T09:51:07.629Z,73.10
2018-12-12T09:53:39.211Z,73.30
2018-12-12T09:56:08.821Z,73.10
2018-12-12T09:58:38.371Z,73.50
2018-12-12T10:01:12.937Z,73.20
2018-12-12T10:03:47.364Z,73.10
2018-12-12T10:06:16.959Z,73.00
2018-12-12T10:08:51.402Z,73.10
2018-12-12T10:11:20.934Z,72.80
2018-12-12T10:13:50.589Z,73.80
2018-12-12T10:16:20.018Z,73.00
2018-12-12T10:18:49.525Z,73.10
2018-12-12T10:21:19.086Z,73.30
2018-12-12T10:23:53.499Z,72.50
2018-12-12T10:26:23.201Z,72.00
2018-12-12T10:28:52.937Z,72.30
2018-12-12T10:31:27.546Z,71.50
2018-12-12T10:33:57.107Z,71.60
2018-12-12T10:36:26.620Z,71.50
2018-12-12T10:38:56.210Z,71.50
2018-12-12T10:41:25.630Z,71.80
2018-12-12T10:43:55.216Z,71.30
2018-12-12T10:46:24.734Z,71.20
2018-12-12T10:48:59.261Z,71.30
2018-12-12T10:51:28.773Z,71.10
2018-12-12T10:53:58.278Z,71.80
2018-12-12T10:56:32.830Z,71.70
2018-12-12T10:59:02.407Z,71.40
2018-12-12T11:01:37.375Z,70.80
2018-12-12T11:04:06.951Z,70.20
2018-12-12T11:06:36.658Z,70.20
2018-12-12T11:09:06.633Z,70.20
2018-12-12T11:11:38.095Z,70.10
2018-12-12T11:14:12.522Z,68.80
2018-12-12T11:16:46.983Z,67.20
2018-12-12T11:19:16.546Z,66.70
2018-12-12T11:21:50.985Z,67.30
2018-12-12T11:24:20.417Z,69.30
2018-12-12T11:26:54.858Z,69.20
2018-12-12T11:29:24.383Z,69.70
2018-12-12T11:31:53.975Z,68.50
2018-12-12T11:34:23.613Z,67.70
2018-12-12T11:36:53.550Z,67.00
2018-12-12T11:39:23.078Z,66.40
2018-12-12T11:41:52.595Z,65.60
2018-12-12T11:44:22.154Z,65.40
2018-12-12T11:46:51.747Z,65.30
2018-12-12T11:49:21.310Z,66.40
2018-12-12T11:51:56.029Z,65.40
2018-12-12T11:54:25.701Z,65.30
2018-12-12T11:56:55.453Z,64.50
2018-12-12T11:59:25.015Z,64.40
2018-12-12T12:01:59.431Z,64.30
2018-12-12T12:04:29.234Z,64.10
2018-12-12T12:06:59.313Z,64.30
2018-12-12T12:09:33.743Z,64.40
2018-12-12T12:12:03.797Z,64.50
2018-12-12T12:14:35.373Z,64.90
2018-12-12T12:17:04.886Z,64.70
2018-12-12T12:19:34.394Z,64.60
2018-12-12T12:22:03.810Z,64.60
2018-12-12T12:24:33.367Z,64.30
2018-12-12T12:27:02.843Z,64.20
2018-12-12T12:29:32.359Z,63.60
2018-12-12T12:32:01.861Z,64.50
2018-12-12T12:34:31.397Z,64.30
2018-12-12T12:37:01.058Z,64.10
2018-12-12T12:39:30.579Z,63.70
2018-12-12T12:42:00.094Z,63.60
2018-12-12T12:44:29.634Z,64.10
2018-12-12T12:46:59.220Z,64.00
2018-12-12T12:49:28.740Z,64.40
2018-12-12T12:51:58.309Z,64.40
2018-12-12T12:54:27.838Z,64.40
2018-12-12T12:57:02.250Z,63.90
2018-12-12T12:59:31.863Z,64.40
2018-12-12T13:02:01.489Z,63.50
2018-12-12T13:04:31.104Z,63.40
2018-12-12T13:07:00.709Z,64.40
2018-12-12T13:09:30.238Z,65.20
2018-12-12T13:11:59.916Z,65.70
2018-12-12T13:14:29.506Z,65.80
2018-12-12T13:17:04.281Z,66.30
2018-12-12T13:19:38.713Z,66.40
2018-12-12T13:22:08.235Z,66.40
2018-12-12T13:24:37.996Z,65.90
2018-12-12T13:27:07.508Z,65.70
2018-12-12T13:29:36.979Z,65.30
2018-12-12T13:32:06.501Z,65.80
2018-12-12T13:34:36.030Z,66.60
2018-12-12T13:37:10.450Z,66.60
2018-12-12T13:39:40.485Z,66.70
2018-12-12T13:42:10.014Z,66.00
2018-12-12T13:44:44.445Z,65.20
2018-12-12T13:47:17.287Z,65.40
2018-12-12T13:49:50.338Z,64.40
2018-12-12T13:52:19.853Z,64.20
2018-12-12T13:54:49.364Z,63.60
2018-12-12T13:57:19.106Z,64.10
2018-12-12T13:59:49.262Z,64.40
2018-12-12T14:02:23.763Z,65.10
2018-12-12T14:04:53.320Z,66.20
2018-12-12T14:07:22.917Z,65.10
2018-12-12T14:09:53.203Z,65.30
2018-12-12T14:12:22.770Z,65.10
2018-12-12T14:14:52.358Z,65.30
2018-12-12T14:17:21.939Z,65.40
2018-12-12T14:19:51.401Z,65.00
2018-12-12T14:22:21.066Z,65.30
2018-12-12T14:24:50.590Z,64.20
2018-12-12T14:27:20.002Z,64.30
2018-12-12T14:29:49.538Z,64.70
2018-12-12T14:32:19.010Z,64.20
2018-12-12T14:34:48.537Z,62.60
2018-12-12T14:37:17.945Z,62.30
2018-12-12T14:39:47.459Z,62.20
2018-12-12T14:42:17.089Z,62.20
2018-12-12T14:44:46.695Z,62.40
2018-12-12T14:47:16.217Z,62.10
2018-12-12T14:49:50.726Z,62.70
2018-12-12T14:52:20.331Z,62.20
2018-12-12T14:54:54.765Z,62.10
2018-12-12T14:57:24.536Z,62.20
2018-12-12T14:59:54.193Z,63.00
2018-12-12T15:02:23.730Z,63.20
2018-12-12T15:04:58.197Z,63.10
2018-12-12T15:07:28.147Z,62.90
2018-12-12T15:09:57.730Z,62.50
2018-12-12T15:12:27.248Z,63.00
2018-12-12T15:14:57.418Z,62.10
2018-12-12T15:17:31.838Z,62.20
2018-12-12T15:20:01.495Z,63.10
2018-12-12T15:22:31.186Z,63.10
2018-12-12T15:25:00.704Z,63.20
2018-12-12T15:27:30.295Z,63.40
2018-12-12T15:29:59.810Z,63.80
2018-12-12T15:32:29.363Z,63.50
2018-12-12T15:34:58.970Z,63.40
2018-12-12T15:37:28.500Z,64.20
2018-12-12T15:39:59.142Z,64.80
2018-12-12T15:42:28.742Z,65.10
2018-12-12T15:44:58.278Z,65.40
2018-12-12T15:47:27.812Z,65.40
2018-12-12T15:49:57.470Z,65.00
2018-12-12T15:52:26.997Z,65.00
2018-12-12T15:54:56.632Z,65.60
2018-12-12T15:57:26.183Z,66.20
2018-12-12T15:59:55.950Z,67.10
2018-12-12T16:02:25.510Z,68.10
2018-12-12T16:04:55.027Z,68.70
2018-12-12T16:07:24.639Z,69.00
2018-12-12T16:09:54.186Z,69.20
2018-12-12T16:12:29.001Z,69.40
2018-12-12T16:14:58.426Z,69.80
2018-12-12T16:17:28.007Z,69.80
2018-12-12T16:19:57.571Z,69.50
2018-12-12T16:22:27.086Z,69.80
2018-12-12T16:24:56.589Z,69.70
2018-12-12T16:27:26.230Z,70.10
2018-12-12T16:29:55.865Z,70.10
2018-12-12T16:32:25.402Z,70.90
2018-12-12T16:34:55.824Z,70.60
2018-12-12T16:37:25.554Z,70.70
2018-12-12T16:40:00.102Z,70.40
2018-12-12T16:42:29.779Z,70.60
2018-12-12T16:45:01.222Z,70.40
2018-12-12T16:47:48.066Z,70.60
2018-12-12T16:50:22.578Z,70.30
2018-12-12T16:52:52.118Z,71.50
2018-12-12T16:55:22.226Z,71.00
2018-12-12T16:57:56.877Z,70.80
2018-12-12T17:00:31.315Z,70.50
2018-12-12T17:03:00.965Z,70.70
2018-12-12T17:05:30.882Z,71.40
2018-12-12T17:08:00.348Z,70.70
2018-12-12T17:10:34.898Z,71.00
2018-12-12T17:13:09.455Z,70.80
2018-12-12T17:15:44.066Z,70.80
2018-12-12T17:18:19.161Z,70.80
2018-12-12T17:20:49.917Z,71.00
2018-12-12T17:23:20.085Z,71.40
2018-12-12T17:25:49.629Z,71.60
2018-12-12T17:28:19.818Z,71.70
2018-12-12T17:30:49.267Z,72.80
2018-12-12T17:33:25.742Z,72.70
2018-12-12T17:35:55.334Z,72.40
2018-12-12T17:38:25.047Z,72.00
2018-12-12T17:40:55.968Z,71.50
2018-12-12T17:43:25.427Z,71.20
2018-12-12T17:45:55.007Z,71.40
2018-12-12T17:48:24.594Z,71.80
2018-12-12T17:50:54.282Z,71.50
2018-12-12T17:53:23.746Z,71.00
2018-12-12T17:55:53.418Z,71.10
2018-12-12T17:58:28.034Z,71.20
2018-12-12T18:00:57.779Z,71.10
2018-12-12T18:03:29.293Z,71.50
2018-12-12T18:06:15.682Z,70.70
2018-12-12T18:08:45.305Z,70.20
2018-12-12T18:11:20.046Z,70.30
2018-12-12T18:13:49.630Z,69.50
2018-12-12T18:16:26.206Z,70.00
2018-12-12T18:18:55.726Z,69.80
2018-12-12T18:21:25.408Z,70.20
2018-12-12T18:23:56.977Z,69.50
2018-12-12T18:26:28.172Z,70.30
2018-12-12T18:28:57.649Z,69.60
2018-12-12T18:31:27.350Z,69.20
2018-12-12T18:34:13.657Z,69.20
2018-12-12T18:36:43.270Z,69.00
2018-12-12T18:39:12.841Z,69.00
2018-12-12T18:41:43.966Z,68.90
2018-12-12T18:44:36.958Z,69.10
2018-12-12T18:47:06.246Z,68.10
2018-12-12T18:49:35.785Z,67.90
2018-12-12T18:52:07.326Z,68.40
2018-12-12T18:54:37.034Z,68.90
2018-12-12T18:57:08.582Z,68.80
2018-12-12T18:59:38.215Z,68.50
2018-12-12T19:02:07.910Z,68.60
2018-12-12T19:04:37.490Z,69.00
2018-12-12T19:07:07.009Z,69.20
2018-12-12T19:09:36.605Z,68.50
2018-12-12T19:12:06.550Z,67.90
2018-12-12T19:14:45.281Z,67.60
2018-12-12T19:17:20.570Z,67.10
2018-12-12T19:19:50.103Z,67.50
2018-12-12T19:22:19.709Z,67.60
2018-12-12T19:24:49.214Z,67.50
2018-12-12T19:27:18.874Z,67.10
2018-12-12T19:29:48.478Z,67.00
2018-12-12T19:32:18.830Z,66.60
2018-12-12T19:34:49.945Z,66.20
2018-12-12T19:37:20.022Z,66.50
2018-12-12T19:39:50.506Z,66.20
2018-12-12T19:42:23.417Z,65.80
2018-12-12T19:44:53.566Z,66.10
2018-12-12T19:47:28.467Z,66.10
2018-12-12T19:49:59.071Z,66.50
2018-12-12T19:52:39.861Z,66.80
2018-12-12T19:55:09.886Z,66.90
2018-12-12T19:57:46.433Z,66.70
2018-12-12T20:00:20.934Z,67.20
2018-12-12T20:02:55.526Z,67.30
2018-12-12T20:05:25.034Z,66.80
2018-12-12T20:07:56.321Z,66.00
2018-12-12T20:10:30.819Z,67.40
2018-12-12T20:13:00.496Z,67.80
2018-12-12T20:15:40.479Z,69.10
2018-12-12T20:18:10.014Z,69.10
2018-12-12T20:20:39.700Z,69.50
2018-12-12T20:23:14.683Z,70.80
2018-12-12T20:25:44.222Z,72.10
2018-12-12T20:28:13.872Z,72.90
2018-12-12T20:30:44.001Z,73.60
2018-12-12T20:33:13.539Z,73.60
2018-12-12T20:35:48.021Z,73.50
2018-12-12T20:38:15.978Z,72.70
2018-12-12T20:40:50.782Z,72.40
2018-12-12T20:43:20.342Z,72.50
2018-12-12T20:45:51.402Z,72.20
2018-12-12T20:48:22.963Z,72.30
2018-12-12T20:50:53.098Z,72.80
2018-12-12T20:53:22.654Z,73.40
2018-12-12T20:55:57.231Z,74.70
2018-12-12T20:58:26.998Z,76.00
2018-12-12T21:00:57.242Z,76.30
2018-12-12T21:03:37.855Z,76.00
2018-12-12T21:06:14.707Z,76.00
2018-12-12T21:08:51.970Z,76.80
2018-12-12T21:11:21.577Z,76.60
2018-12-12T21:13:51.034Z,76.60
2018-12-12T21:16:20.652Z,76.90
2018-12-12T21:18:50.181Z,77.70
2018-12-12T21:21:19.707Z,77.50
2018-12-12T21:23:49.209Z,76.60
2018-12-12T21:26:20.726Z,76.20
2018-12-12T21:28:56.186Z,75.80
2018-12-12T21:31:27.245Z,76.40
2018-12-12T21:33:56.781Z,75.50
2018-12-12T21:36:26.574Z,75.60
2018-12-12T21:38:56.028Z,75.30
2018-12-12T21:41:25.486Z,75.60
2018-12-12T21:43:54.997Z,76.10
2018-12-12T21:46:25.871Z,76.00
2018-12-12T21:48:55.397Z,76.30
2018-12-12T21:51:26.108Z,76.10
2018-12-12T21:53:56.483Z,75.70
2018-12-12T21:56:31.097Z,75.30
2018-12-12T21:59:05.710Z,74.70
2018-12-12T22:01:35.274Z,74.70
2018-12-12T22:04:04.817Z,75.00
2018-12-12T22:06:35.862Z,75.10
2018-12-12T22:09:08.362Z,74.80
2018-12-12T22:11:44.893Z,74.50
2018-12-12T22:14:17.930Z,73.50
2018-12-12T22:16:48.092Z,72.40
2018-12-12T22:19:22.469Z,72.20
2018-12-12T22:21:52.098Z,72.30
2018-12-12T22:24:21.598Z,71.90
2018-12-12T22:26:51.748Z,71.90
2018-12-12T22:29:21.274Z,72.30
2018-12-12T22:31:55.785Z,72.60
2018-12-12T22:34:25.400Z,71.80
2018-12-12T22:36:59.856Z,71.40
2018-12-12T22:39:29.437Z,71.30
2018-12-12T22:42:04.110Z,71.30
2018-12-12T22:44:33.706Z,71.20
2018-12-12T22:47:03.262Z,71.20
2018-12-12T22:49:33.114Z,71.20
2018-12-12T22:52:02.815Z,71.30
2018-12-12T22:54:32.241Z,71.30
2018-12-12T22:57:01.733Z,71.20
2018-12-12T22:59:37.205Z,71.80
2018-12-12T23:02:11.978Z,71.90
2018-12-12T23:04:41.555Z,71.90
2018-12-12T23:07:11.141Z,72.10
2018-12-12T23:09:40.550Z,72.00
2018-12-12T23:12:14.992Z,72.00
2018-12-12T23:14:44.589Z,72.10
2018-12-12T23:17:14.130Z,71.90
2018-12-12T23:19:43.647Z,72.00
2018-12-12T23:22:13.725Z,71.40
2018-12-12T23:24:43.282Z,71.90
2018-12-12T23:27:12.886Z,72.20
2018-12-12T23:29:42.430Z,72.80
2018-12-12T23:32:12.082Z,72.60
2018-12-12T23:34:41.578Z,73.20
2018-12-12T23:37:11.074Z,74.10
2018-12-12T23:39:40.490Z,74.60
2018-12-12T23:42:14.975Z,75.50
2018-12-12T23:44:44.496Z,76.40
2018-12-12T23:47:18.906Z,76.80
2018-12-12T23:49:48.430Z,76.40
2018-12-12T23:52:18.990Z,75.60
2018-12-12T23:54:48.513Z,75.60
2018-12-12T23:57:18.062Z,75.70
2018-12-12T23:59:47.562Z,75.80
